Time;durP1;ratioP1;P1;durP2;ratioP2;P2;SDS_P1;SDS_P2;PMS_P1;PMS_P2;Temp;Humidity;BMP_temperature;BMP_pressure;BME280_temperature;BME280_humidity;BME280_pressure;Samples;Min_cycle;Max_cycle;Signal;HPM_P1;HPM_P2
2022/07/15 00:01:28;;;;;;;;;7.75;7.75;;;;;23.63;37.85;101789.06;5103100;27;46322;-69
2022/07/15 00:03:54;;;;;;;;;6.00;6.00;;;;;23.54;38.40;101787.59;5101272;27;45417;-70
2022/07/15 00:06:19;;;;;;;;;13.00;12.00;;;;;23.52;38.56;101787.00;5101040;27;45301;-74
2022/07/15 00:08:44;;;;;;;;;14.25;14.25;;;;;23.44;38.17;101787.19;5101342;27;45327;-73
2022/07/15 00:11:10;;;;;;;;;16.25;14.25;;;;;23.38;39.20;101783.41;5101055;27;45710;-72
2022/07/15 00:13:35;;;;;;;;;11.00;9.75;;;;;23.32;38.88;101780.69;5101054;27;45421;-72
2022/07/15 00:16:01;;;;;;;;;7.75;5.75;;;;;23.34;38.96;101797.59;5117157;27;45405;-72
2022/07/15 00:18:26;;;;;;;;;7.75;6.00;;;;;23.28;39.15;101787.56;5101222;27;45445;-73
2022/07/15 00:20:51;;;;;;;;;1.50;0.00;;;;;23.25;38.89;101788.81;5100879;27;47387;-74
2022/07/15 00:23:17;;;;;;;;;5.00;4.25;;;;;23.21;38.93;101801.09;5101059;27;45288;-74
2022/07/15 00:25:42;;;;;;;;;5.75;5.00;;;;;23.14;39.56;101806.53;5101006;27;45363;-74
2022/07/15 00:28:08;;;;;;;;;6.25;6.00;;;;;23.01;39.91;101786.66;5100991;27;45288;-73
2022/07/15 00:30:37;;;;;;;;;6.50;5.00;;;;;23.08;39.28;101801.06;5100725;27;45222;-73
2022/07/15 00:33:03;;;;;;;;;5.50;4.75;;;;;22.99;39.49;101788.72;5100565;27;45371;-75
2022/07/15 00:35:30;;;;;;;;;7.25;5.00;;;;;23.04;40.04;101813.38;5099932;27;45429;-75
2022/07/15 00:37:56;;;;;;;;;5.75;4.00;;;;;23.01;39.50;101813.81;5099662;27;45366;-75
2022/07/15 00:40:22;;;;;;;;;4.00;4.00;;;;;22.96;40.33;101808.13;5099327;27;47777;-72
2022/07/15 00:42:47;;;;;;;;;4.25;4.25;;;;;22.90;39.61;101807.06;5100641;27;45532;-74
2022/07/15 00:45:16;;;;;;;;;6.00;6.00;;;;;22.88;40.17;101817.25;5100591;27;45139;-75
2022/07/15 00:47:47;;;;;;;;;6.75;6.50;;;;;22.84;40.21;101818.72;5100834;27;45458;-74
2022/07/15 00:50:14;;;;;;;;;7.25;5.25;;;;;22.76;40.56;101817.00;5100213;27;45322;-70
2022/07/15 00:52:43;;;;;;;;;11.50;9.00;;;;;22.84;40.17;101833.09;5100417;27;45236;-77
2022/07/15 00:55:12;;;;;;;;;8.25;8.25;;;;;22.78;40.44;101814.06;5100716;27;45304;-75
2022/07/15 00:57:42;;;;;;;;;8.75;7.00;;;;;22.82;40.32;101834.34;5100574;27;45223;-77
2022/07/15 01:00:10;;;;;;;;;11.00;7.25;;;;;22.80;40.78;101833.72;5100139;27;46149;-67
2022/07/15 01:02:37;;;;;;;;;11.00;8.00;;;;;22.74;40.54;101831.78;5098895;27;45310;-73
2022/07/15 01:05:04;;;;;;;;;12.25;7.25;;;;;22.78;40.08;101844.75;5099057;27;45437;-74
2022/07/15 01:07:30;;;;;;;;;10.25;8.25;;;;;22.76;40.55;101841.41;5100511;27;45407;-76
2022/07/15 01:09:55;;;;;;;;;7.75;7.75;;;;;22.70;40.50;101838.66;5100142;27;46213;-69
2022/07/15 01:12:21;;;;;;;;;8.00;8.00;;;;;22.56;41.16;101821.47;5099664;27;45220;-67
2022/07/15 01:14:47;;;;;;;;;8.75;7.50;;;;;22.52;41.61;101828.34;5100185;27;45322;-64
2022/07/15 01:17:13;;;;;;;;;7.50;7.50;;;;;22.57;40.61;101844.84;5100268;27;45396;-75
2022/07/15 01:19:38;;;;;;;;;9.50;6.75;;;;;22.47;41.46;101844.38;5099581;27;46107;-76
2022/07/15 01:22:05;;;;;;;;;10.25;5.00;;;;;22.45;41.42;101855.38;5100360;27;45472;-76
2022/07/15 01:24:30;;;;;;;;;6.00;6.00;;;;;22.33;41.57;101855.13;5100124;27;45469;-72
2022/07/15 01:26:56;;;;;;;;;6.00;6.00;;;;;22.33;41.22;101855.13;5100255;27;45414;-73
2022/07/15 01:29:21;;;;;;;;;5.75;5.75;;;;;22.29;41.64;101869.25;5099840;27;46170;-75
2022/07/15 01:31:47;;;;;;;;;5.75;5.75;;;;;22.27;41.55;101855.91;5100347;27;45267;-72
2022/07/15 01:34:13;;;;;;;;;6.75;5.00;;;;;22.23;41.61;101854.63;5099800;27;45558;-71
2022/07/15 01:36:38;;;;;;;;;4.50;4.50;;;;;21.93;41.50;101811.41;5100001;27;45327;-73
2022/07/15 01:39:04;;;;;;;;;4.00;4.00;;;;;22.03;41.62;101838.16;5099589;27;46102;-74
2022/07/15 01:41:29;;;;;;;;;4.75;4.75;;;;;21.97;41.62;101847.06;5098272;27;45273;-75
2022/07/15 01:43:55;;;;;;;;;7.00;5.00;;;;;22.02;41.29;101869.00;5099590;27;45381;-74
2022/07/15 01:46:20;;;;;;;;;4.75;4.00;;;;;21.91;41.90;101856.84;5100001;27;45297;-73
2022/07/15 01:51:29;;;;;;;;;4.00;4.00;;;;;21.78;41.79;101863.97;5099428;27;45333;-71
2022/07/15 01:53:55;;;;;;;;;5.50;3.00;;;;;21.66;41.70;101852.84;5099870;27;45265;-63
2022/07/15 01:56:20;;;;;;;;;4.00;4.00;;;;;21.63;41.38;101859.47;5099557;27;45434;-75
2022/07/15 01:58:45;;;;;;;;;3.50;3.00;;;;;21.60;41.58;101865.25;5097943;27;45504;-63
2022/07/15 02:01:11;;;;;;;;;4.00;2.50;;;;;21.55;41.75;101865.00;5097972;27;45429;-73
2022/07/15 02:03:36;;;;;;;;;3.00;3.00;;;;;21.49;42.09;101852.25;5099778;27;45420;-73
2022/07/15 02:06:02;;;;;;;;;4.75;4.75;;;;;21.45;42.08;101850.94;5099963;27;45457;-72
2022/07/15 02:08:27;;;;;;;;;5.75;3.00;;;;;21.28;41.82;101835.91;5099438;27;45370;-67
2022/07/15 02:10:53;;;;;;;;;8.25;5.25;;;;;21.36;42.01;101862.91;5099653;27;45505;-72
2022/07/15 02:13:18;;;;;;;;;4.00;4.00;;;;;21.30;42.53;101848.22;5099184;27;45359;-72
2022/07/15 02:15:44;;;;;;;;;4.50;4.00;;;;;21.18;42.43;101847.88;5099058;27;45459;-74
2022/07/15 02:18:10;;;;;;;;;4.00;3.00;;;;;21.28;42.01;101862.97;5099275;27;45388;-73
2022/07/15 02:20:36;;;;;;;;;3.25;2.75;;;;;21.22;42.04;101856.47;5098974;27;45283;-64
2022/07/15 02:23:02;;;;;;;;;4.50;4.00;;;;;21.21;42.03;101856.66;5098120;27;45366;-65
2022/07/15 02:25:30;;;;;;;;;3.75;3.00;;;;;21.18;42.50;101856.00;5098826;27;45390;-74
2022/07/15 02:27:58;;;;;;;;;3.75;3.75;;;;;21.17;41.92;101859.75;5099433;27;46201;-70
2022/07/15 02:30:32;;;;;;;;;4.00;3.00;;;;;21.12;42.07;101853.22;5099052;27;45347;-65
2022/07/15 02:32:58;;;;;;;;;5.00;4.25;;;;;20.96;42.31;101829.09;5097735;27;45412;-64
2022/07/15 02:35:24;;;;;;;;;6.00;3.00;;;;;21.09;42.28;101857.13;5099227;27;45403;-74
2022/07/15 02:37:49;;;;;;;;;6.00;5.67;;;;;21.05;42.72;101861.25;5099369;27;45513;-64
2022/07/15 02:40:15;;;;;;;;;5.00;4.75;;;;;21.01;42.33;101849.13;5099055;27;45285;-75
2022/07/15 02:42:50;;;;;;;;;5.75;3.75;;;;;20.87;42.15;101834.59;5098978;27;45564;-68
2022/07/15 02:45:16;;;;;;;;;4.00;3.00;;;;;20.99;42.12;101856.59;5098915;27;45480;-64
2022/07/15 02:47:42;;;;;;;;;5.25;4.00;;;;;20.91;42.05;101846.72;5098556;27;47003;-68
2022/07/15 02:50:07;;;;;;;;;7.50;5.50;;;;;20.91;42.44;101854.00;5097053;27;45336;-63
2022/07/15 02:52:33;;;;;;;;;4.00;4.00;;;;;20.76;42.22;101831.53;5099100;27;45228;-65
2022/07/15 02:54:58;;;;;;;;;4.75;3.75;;;;;20.81;42.62;101848.03;5097429;27;45462;-65
2022/07/15 02:57:24;;;;;;;;;3.25;3.25;;;;;20.80;42.04;101862.56;5098676;27;45992;-63
2022/07/15 02:59:49;;;;;;;;;3.50;3.25;;;;;20.73;42.14;101859.81;5098235;27;45440;-62
2022/07/15 03:02:15;;;;;;;;;5.00;3.50;;;;;20.74;42.22;101861.47;5098791;27;45381;-66
2022/07/15 03:04:40;;;;;;;;;4.75;3.00;;;;;20.74;42.96;101864.19;5098958;27;45406;-70
2022/07/15 03:07:05;;;;;;;;;5.25;4.75;;;;;20.75;42.45;101870.41;5098343;27;46033;-63
2022/07/15 03:09:31;;;;;;;;;5.75;4.00;;;;;20.73;42.54;101875.16;5098647;27;45269;-72
2022/07/15 03:11:56;;;;;;;;;7.75;4.75;;;;;20.67;42.61;101860.53;5098513;27;45363;-64
2022/07/15 03:14:21;;;;;;;;;5.50;2.50;;;;;20.83;42.03;101879.28;5098702;27;45419;-75
2022/07/15 03:16:47;;;;;;;;;5.25;4.00;;;;;20.82;42.41;101872.19;5098904;27;46074;-65
2022/07/15 03:19:13;;;;;;;;;4.75;3.00;;;;;20.71;42.06;101858.28;5096635;27;45543;-63
2022/07/15 03:21:39;;;;;;;;;3.50;3.25;;;;;20.76;42.24;101872.94;5098216;27;45347;-66
2022/07/15 03:24:06;;;;;;;;;3.50;3.00;;;;;20.78;42.34;101886.28;5098196;27;45400;-63
2022/07/15 03:26:33;;;;;;;;;4.50;3.00;;;;;20.76;41.81;101877.50;5098174;27;46112;-64
2022/07/15 03:28:59;;;;;;;;;6.00;4.25;;;;;20.75;42.62;101873.13;5096770;27;45436;-63
2022/07/15 03:31:26;;;;;;;;;7.75;3.75;;;;;20.67;42.50;101857.81;5097040;27;45254;-63
2022/07/15 03:33:51;;;;;;;;;4.25;4.25;;;;;20.78;42.25;101873.59;5098021;27;45407;-63
2022/07/15 03:36:17;;;;;;;;;9.33;6.67;;;;;20.72;42.35;101860.81;5097571;27;46159;-64
2022/07/15 03:38:42;;;;;;;;;7.75;6.00;;;;;20.76;42.47;101872.94;5096497;27;45378;-65
2022/07/15 03:41:08;;;;;;;;;10.33;7.00;;;;;20.71;42.80;101869.09;5098315;27;45304;-74
2022/07/15 03:43:34;;;;;;;;;9.00;5.00;;;;;20.70;42.19;101864.72;5099019;27;45400;-64
2022/07/15 03:45:59;;;;;;;;;10.75;5.00;;;;;20.63;42.74;101868.16;5098418;27;46176;-63
2022/07/15 03:48:25;;;;;;;;;5.67;5.00;;;;;20.57;42.71;101844.59;5098472;27;45363;-63
2022/07/15 03:50:50;;;;;;;;;6.00;5.75;;;;;20.64;42.31;101856.31;5098475;27;45331;-69
2022/07/15 03:53:15;;;;;;;;;6.00;4.25;;;;;20.39;42.18;101827.84;5098544;27;45423;-64
2022/07/15 03:55:41;;;;;;;;;6.00;3.75;;;;;20.56;42.57;101855.56;5097260;27;46516;-70
2022/07/15 03:58:06;;;;;;;;;6.25;3.75;;;;;20.56;42.47;101860.97;5098557;27;45297;-74
2022/07/15 04:00:31;;;;;;;;;4.25;4.25;;;;;20.50;42.87;101873.38;5099351;27;45375;-63
2022/07/15 04:02:57;;;;;;;;;2.00;2.00;;;;;20.54;42.75;101873.84;5097343;27;45539;-76
2022/07/15 04:05:22;;;;;;;;;4.25;4.00;;;;;20.52;43.02;101875.88;5097979;27;46007;-64
2022/07/15 04:07:48;;;;;;;;;3.50;3.50;;;;;20.51;43.32;101876.91;5099006;27;45526;-67
2022/07/15 04:10:14;;;;;;;;;4.00;3.75;;;;;20.49;42.90;101876.28;5098913;27;45368;-66
2022/07/15 04:12:41;;;;;;;;;3.75;3.75;;;;;20.48;43.04;101888.97;5099697;27;45204;-68
2022/07/15 04:15:07;;;;;;;;;5.00;4.25;;;;;20.42;43.12;101873.44;5099023;27;45464;-75
2022/07/15 04:17:33;;;;;;;;;7.50;4.75;;;;;20.46;43.25;101884.72;5097618;27;45572;-64
2022/07/15 04:19:58;;;;;;;;;5.00;3.25;;;;;20.10;43.29;101829.50;5097814;27;45316;-68
2022/07/15 04:22:23;;;;;;;;;7.00;4.00;;;;;20.30;43.19;101875.72;5096203;27;45367;-64
2022/07/15 04:24:49;;;;;;;;;5.00;4.00;;;;;20.25;43.19;101878.16;5097230;27;46119;-64
2022/07/15 04:27:15;;;;;;;;;8.33;3.33;;;;;20.29;43.51;101886.72;5097816;27;45320;-63
2022/07/15 04:29:40;;;;;;;;;4.33;4.33;;;;;20.24;43.89;101881.88;5097278;27;45319;-65
2022/07/15 04:32:06;;;;;;;;;4.00;4.00;;;;;20.25;43.34;101885.41;5095901;27;45351;-67
2022/07/15 04:34:31;;;;;;;;;4.50;4.50;;;;;20.21;43.75;101890.34;5097773;27;45591;-64
2022/07/15 04:36:57;;;;;;;;;7.00;5.00;;;;;20.10;43.38;101870.00;5096874;27;45430;-65
2022/07/15 04:39:22;;;;;;;;;7.00;5.33;;;;;20.19;44.29;101887.84;5098864;27;45403;-65
2022/07/15 04:41:49;;;;;;;;;7.00;4.00;;;;;20.18;44.45;101891.56;5101181;27;45469;-66
2022/07/15 04:44:15;;;;;;;;;4.00;4.00;;;;;20.16;43.94;101895.47;5099290;27;47198;-64
2022/07/15 04:46:41;;;;;;;;;4.00;4.00;;;;;20.15;43.61;101894.63;5100488;27;45433;-76
2022/07/15 04:51:51;;;;;;;;;4.33;4.33;;;;;20.10;44.48;101897.03;5101082;27;45211;-64
2022/07/15 04:54:17;;;;;;;;;6.67;5.00;;;;;20.13;43.69;101904.75;5102793;27;45351;-65
2022/07/15 04:56:42;;;;;;;;;5.00;5.00;;;;;20.10;44.44;101898.88;5102547;27;45395;-67
2022/07/15 04:59:07;;;;;;;;;6.67;6.33;;;;;20.09;44.72;101898.03;5104110;27;45462;-66
2022/07/15 05:01:33;;;;;;;;;4.33;4.33;;;;;20.05;44.50;101899.41;5103249;27;45367;-64
2022/07/15 05:03:59;;;;;;;;;6.00;5.00;;;;;20.04;44.90;101900.44;5101785;27;46022;-66
2022/07/15 05:06:24;;;;;;;;;5.00;5.00;;;;;20.06;44.70;101906.53;5103266;27;45380;-71
2022/07/15 05:08:49;;;;;;;;;6.67;6.33;;;;;20.01;45.50;101902.66;5101089;27;45342;-73
2022/07/15 05:11:15;;;;;;;;;6.67;5.00;;;;;20.13;44.37;101910.16;5100330;27;45494;-65
2022/07/15 05:13:40;;;;;;;;;9.00;6.33;;;;;20.12;44.66;101915.75;5100290;27;45938;-67
2022/07/15 05:16:06;;;;;;;;;5.67;5.00;;;;;20.03;45.04;101906.03;5115840;27;45447;-71
2022/07/15 05:18:31;;;;;;;;;4.33;4.33;;;;;20.15;44.62;101924.34;5100282;27;45250;-66
2022/07/15 05:20:56;;;;;;;;;4.67;4.00;;;;;20.15;44.97;101918.94;5098867;27;45303;-66
2022/07/15 05:23:22;;;;;;;;;5.67;5.67;;;;;20.15;45.12;101913.53;5099943;27;46302;-65
2022/07/15 05:25:47;;;;;;;;;8.33;5.67;;;;;20.19;44.76;101924.81;5099888;27;45248;-64
2022/07/15 05:28:12;;;;;;;;;6.00;6.00;;;;;20.20;45.33;101923.78;5100062;27;45705;-62
2022/07/15 05:30:38;;;;;;;;;5.00;5.00;;;;;20.18;45.38;101923.13;5100051;27;45374;-63
2022/07/15 05:33:04;;;;;;;;;10.33;6.00;;;;;20.21;45.20;101924.63;5099455;27;46201;-73
2022/07/15 05:35:30;;;;;;;;;7.00;5.00;;;;;20.27;45.41;101929.28;5099940;27;45682;-72
2022/07/15 05:37:55;;;;;;;;;9.33;8.00;;;;;20.16;45.44;101920.59;5099999;27;45288;-64
2022/07/15 05:40:21;;;;;;;;;7.00;6.67;;;;;20.31;45.16;101941.41;5100121;27;45216;-66
2022/07/15 05:42:46;;;;;;;;;8.67;6.00;;;;;20.22;45.67;101929.84;5099779;27;45972;-73
2022/07/15 05:45:12;;;;;;;;;6.00;5.33;;;;;20.24;45.47;101926.97;5099587;27;45320;-54
2022/07/15 05:47:37;;;;;;;;;9.00;5.67;;;;;20.33;45.95;101947.50;5099258;27;45343;-55
2022/07/15 05:50:03;;;;;;;;;0.00;0.00;;;;;20.38;45.00;101945.09;5099220;27;45278;-54
2022/07/15 05:52:28;;;;;;;;;6.67;5.67;;;;;20.41;45.40;101952.84;5099007;27;46048;-55
2022/07/15 05:54:54;;;;;;;;;8.00;5.00;;;;;20.44;45.75;101950.63;5099258;27;45307;-55
2022/07/15 05:57:19;;;;;;;;;7.00;5.33;;;;;20.48;45.93;101947.53;5099125;27;45372;-55
2022/07/15 05:59:44;;;;;;;;;6.67;6.00;;;;;20.50;45.78;101940.97;5099384;27;45551;-57
2022/07/15 06:02:10;;;;;;;;;6.00;6.00;;;;;20.51;45.97;101952.59;5098941;27;45991;-54
2022/07/15 06:04:36;;;;;;;;;10.67;5.33;;;;;20.52;46.26;101949.75;5098834;27;45416;-54
2022/07/15 06:07:01;;;;;;;;;8.33;6.00;;;;;20.51;45.91;101950.72;5098976;27;45399;-54
2022/07/15 06:09:27;;;;;;;;;7.67;5.67;;;;;20.52;45.53;101962.38;5099149;27;45434;-54
2022/07/15 06:11:52;;;;;;;;;8.00;8.00;;;;;20.51;46.58;101953.44;5098820;27;46996;-54
2022/07/15 06:14:17;;;;;;;;;10.00;8.00;;;;;20.52;45.81;101952.44;5099009;27;45386;-54
2022/07/15 06:16:43;;;;;;;;;8.67;6.00;;;;;20.53;46.25;101953.28;5098641;27;45515;-54
2022/07/15 06:19:08;;;;;;;;;6.00;6.00;;;;;20.56;45.64;101948.34;5099141;27;45195;-58
2022/07/15 06:21:35;;;;;;;;;6.33;5.33;;;;;20.57;45.76;101950.03;5098730;27;45327;-58
2022/07/15 06:24:00;;;;;;;;;7.00;5.67;;;;;20.55;46.50;101953.91;5098901;27;45360;-58
2022/07/15 06:26:26;;;;;;;;;6.67;5.67;;;;;20.53;46.52;101950.56;5098677;27;45336;-58
2022/07/15 06:28:51;;;;;;;;;7.33;5.33;;;;;20.58;46.15;101951.69;5098824;27;45308;-58
2022/07/15 06:31:16;;;;;;;;;6.00;6.00;;;;;20.61;46.05;101951.34;5098403;27;47148;-58
2022/07/15 06:33:42;;;;;;;;;6.00;4.33;;;;;20.65;45.76;101955.34;5098199;27;45370;-58
2022/07/15 06:36:07;;;;;;;;;7.00;5.00;;;;;20.73;45.83;101949.03;5098606;27;45526;-57
2022/07/15 06:38:33;;;;;;;;;10.00;7.00;;;;;20.80;46.01;101962.63;5098966;27;45322;-60
2022/07/15 06:40:58;;;;;;;;;8.00;6.00;;;;;20.85;45.21;101955.63;5098092;27;45419;-61
2022/07/15 06:43:23;;;;;;;;;5.67;5.33;;;;;20.91;45.72;101964.91;5098598;27;45430;-61
2022/07/15 06:45:49;;;;;;;;;5.67;5.33;;;;;21.04;45.46;101962.38;5098238;27;45386;-62
2022/07/15 06:48:15;;;;;;;;;8.67;7.00;;;;;21.27;45.53;101972.25;5098576;27;45460;-61
2022/07/15 06:50:40;;;;;;;;;5.25;5.00;;;;;21.55;44.94;101959.75;5098273;27;45326;-61
2022/07/15 06:53:05;;;;;;;;;5.67;5.33;;;;;21.77;44.47;101954.38;5098205;27;45492;-61
2022/07/15 06:55:31;;;;;;;;;6.25;5.75;;;;;22.22;43.29;101964.06;5098634;27;45583;-60
2022/07/15 06:57:56;;;;;;;;;5.50;5.50;;;;;22.62;43.13;101959.81;5098281;27;45375;-61
2022/07/15 07:00:22;;;;;;;;;6.50;5.75;;;;;23.08;41.56;101964.75;5097947;27;47033;-60
2022/07/15 07:02:47;;;;;;;;;7.25;7.00;;;;;23.61;41.32;101956.88;5096996;27;45387;-60
2022/07/15 07:05:12;;;;;;;;;9.75;7.00;;;;;24.17;40.70;101963.09;5098241;27;45216;-61
2022/07/15 07:07:38;;;;;;;;;6.50;5.00;;;;;24.62;39.42;101946.00;5098546;27;45216;-60
2022/07/15 07:10:04;;;;;;;;;6.50;4.75;;;;;25.18;39.39;101957.44;5113891;27;47963;-61
2022/07/15 07:12:29;;;;;;;;;6.80;5.00;;;;;25.62;37.61;101962.91;5098080;27;45366;-60
2022/07/15 07:14:55;;;;;;;;;6.50;4.50;;;;;26.21;36.09;101963.63;5098110;27;45455;-60
2022/07/15 07:17:20;;;;;;;;;7.25;6.25;;;;;26.85;34.65;101958.91;5098220;27;45481;-60
2022/07/15 07:19:46;;;;;;;;;4.50;4.25;;;;;27.54;35.81;101956.88;5097925;27;46142;-60
2022/07/15 07:22:11;;;;;;;;;6.75;3.75;;;;;28.11;32.36;101954.63;5097865;27;45315;-61
2022/07/15 07:24:36;;;;;;;;;4.50;4.00;;;;;28.73;32.31;101952.31;5097741;27;45240;-61
2022/07/15 07:27:02;;;;;;;;;6.25;4.00;;;;;30.00;31.69;101950.56;5098260;27;45171;-60
2022/07/15 07:29:28;;;;;;;;;5.00;4.75;;;;;31.98;27.05;101952.59;5096572;27;46266;-61
2022/07/15 07:31:53;;;;;;;;;5.00;4.00;;;;;33.49;25.02;101917.16;5113498;27;45442;-60
2022/07/15 07:34:18;;;;;;;;;3.75;3.75;;;;;35.18;25.63;101941.91;5097733;27;45316;-61
2022/07/15 07:36:45;;;;;;;;;4.00;4.00;;;;;36.24;22.44;101942.38;5097800;27;45240;-61
2022/07/15 07:39:12;;;;;;;;;5.80;4.20;;;;;37.20;20.69;101939.69;5096991;27;47179;-62
2022/07/15 07:41:37;;;;;;;;;3.00;3.00;;;;;38.14;20.48;101939.72;5098844;27;45348;-61
2022/07/15 07:44:03;;;;;;;;;4.75;3.00;;;;;39.08;19.78;101941.28;5097760;27;45536;-61
2022/07/15 07:46:28;;;;;;;;;5.50;4.00;;;;;39.93;18.12;101941.59;5097617;27;45402;-61
2022/07/15 07:48:53;;;;;;;;;3.00;1.50;;;;;40.34;19.53;101933.03;5097437;27;45557;-60
2022/07/15 07:51:19;;;;;;;;;3.50;2.00;;;;;40.56;16.74;101940.53;5097626;27;45365;-61
2022/07/15 07:53:46;;;;;;;;;2.00;2.00;;;;;40.90;17.66;101920.28;5097817;27;45227;-61
2022/07/15 07:56:12;;;;;;;;;3.40;2.80;;;;;41.10;17.73;101924.47;5096937;27;45294;-61
2022/07/15 07:58:38;;;;;;;;;1.20;1.20;;;;;41.25;15.66;101936.31;5094381;27;46134;-62
2022/07/15 08:01:03;;;;;;;;;2.25;2.25;;;;;41.46;16.40;101920.56;5096370;27;45257;-61
2022/07/15 08:03:29;;;;;;;;;5.00;2.75;;;;;41.84;15.42;101931.91;5096675;27;45409;-61
2022/07/15 08:05:54;;;;;;;;;3.00;3.00;;;;;41.90;16.34;101917.78;5096433;27;45330;-61
2022/07/15 08:08:22;;;;;;;;;2.00;2.00;;;;;42.26;15.48;101925.78;5096300;27;45394;-62
2022/07/15 08:10:51;;;;;;;;;1.20;1.20;;;;;42.87;15.88;101919.94;5096300;27;45418;-64
2022/07/15 08:13:18;;;;;;;;;4.80;2.80;;;;;42.99;15.45;101920.84;5096505;27;45486;-67
2022/07/15 08:15:44;;;;;;;;;1.20;1.20;;;;;43.04;14.42;101917.03;5100150;27;45489;-67
2022/07/15 08:18:10;;;;;;;;;2.40;2.40;;;;;43.68;13.90;101915.91;5099685;27;46388;-67
2022/07/15 08:20:35;;;;;;;;;1.00;1.00;;;;;44.07;14.19;101923.75;5099969;27;45383;-66
2022/07/15 08:23:02;;;;;;;;;7.00;3.00;;;;;44.02;13.49;101918.38;5100490;27;45530;-68
2022/07/15 08:25:29;;;;;;;;;3.20;2.00;;;;;44.30;13.52;101924.19;5101082;27;45319;-69
2022/07/15 08:27:55;;;;;;;;;2.40;2.40;;;;;44.35;12.98;101911.09;5100768;27;46195;-69
2022/07/15 08:30:20;;;;;;;;;3.00;2.00;;;;;44.60;12.39;101901.50;5100574;27;45406;-67
2022/07/15 08:32:46;;;;;;;;;3.00;2.25;;;;;44.92;12.95;101918.56;5100425;27;45280;-68
2022/07/15 08:35:11;;;;;;;;;4.50;3.00;;;;;45.56;12.22;101914.13;5100810;27;45155;-68
2022/07/15 08:37:37;;;;;;;;;4.50;4.00;;;;;45.73;12.79;101925.06;5100246;27;45891;-67
2022/07/15 08:40:03;;;;;;;;;3.75;2.50;;;;;46.23;12.12;101921.66;5100574;27;45291;-68
2022/07/15 08:42:29;;;;;;;;;3.40;2.80;;;;;46.61;11.92;101914.56;5099172;27;45307;-69
2022/07/15 08:44:54;;;;;;;;;3.00;2.00;;;;;46.89;11.79;101911.59;5100325;27;45354;-68
2022/07/15 08:47:23;;;;;;;;;1.00;1.00;;;;;47.13;12.13;101919.00;5099982;27;46831;-68
2022/07/15 08:49:55;;;;;;;;;0.40;0.40;;;;;47.26;11.42;101914.84;5100056;27;45245;-67
2022/07/15 08:52:21;;;;;;;;;2.40;2.40;;;;;47.60;10.70;101917.97;5100396;27;45487;-69
2022/07/15 08:54:48;;;;;;;;;2.00;2.00;;;;;47.85;11.32;101914.84;5100468;27;45459;-70
2022/07/15 08:57:14;;;;;;;;;4.80;2.60;;;;;47.83;10.30;101911.56;5099562;27;47318;-68
2022/07/15 08:59:39;;;;;;;;;2.60;1.40;;;;;48.14;10.52;101911.38;5099866;27;45278;-68
2022/07/15 09:02:05;;;;;;;;;1.00;1.00;;;;;48.32;10.03;101899.56;5099772;27;45260;-67
2022/07/15 09:04:30;;;;;;;;;3.00;2.75;;;;;48.61;10.66;101900.88;5100086;27;45461;-69
2022/07/15 09:07:03;;;;;;;;;0.50;0.50;;;;;48.54;11.18;101907.19;5099779;27;46404;-67
2022/07/15 09:09:34;;;;;;;;;2.00;0.80;;;;;48.57;11.14;101897.97;5099381;27;45366;-68
2022/07/15 09:12:05;;;;;;;;;2.20;2.20;;;;;48.22;10.12;101901.03;5099887;27;45472;-66
2022/07/15 09:14:33;;;;;;;;;2.40;2.00;;;;;48.21;10.40;101902.19;5099976;27;45261;-68
2022/07/15 09:17:06;;;;;;;;;4.40;1.80;;;;;48.44;9.63;101907.88;5099552;27;46059;-68
2022/07/15 09:19:57;;;;;;;;;0.20;0.00;;;;;48.52;10.13;101905.97;5099326;27;45178;-67
2022/07/15 09:22:23;;;;;;;;;0.80;0.80;;;;;48.92;9.55;101900.53;5099830;27;45292;-68
2022/07/15 09:25:06;;;;;;;;;1.80;1.80;;;;;49.07;9.74;101901.53;5099585;27;45445;-67
2022/07/15 09:27:35;;;;;;;;;1.00;1.00;;;;;49.19;9.82;101906.16;5098198;27;45309;-68
2022/07/15 09:33:43;;;;;;;;;0.00;0.00;;;;;49.25;9.34;101907.44;5056289;28;45376;-67
2022/07/15 09:36:23;;;;;;;;;1.00;1.00;;;;;49.16;9.14;101885.13;5056630;28;45353;-67
2022/07/15 09:38:55;;;;;;;;;0.20;0.20;;;;;49.55;9.04;101883.97;5056498;28;46031;-66
2022/07/15 09:41:26;;;;;;;;;1.00;0.80;;;;;49.82;8.97;101891.16;5056289;28;45370;-66
2022/07/15 09:43:53;;;;;;;;;3.80;1.40;;;;;49.58;9.82;101874.72;5056592;28;45410;-69
2022/07/15 09:46:20;;;;;;;;;0.20;0.20;;;;;49.36;9.05;101896.28;5056884;28;45285;-67
2022/07/15 09:48:49;;;;;;;;;0.20;0.20;;;;;49.19;8.79;101883.56;5056147;28;46135;-65
2022/07/15 09:51:15;;;;;;;;;1.20;1.20;;;;;49.37;9.19;101887.41;5056314;28;45401;-66
2022/07/15 09:53:42;;;;;;;;;3.00;2.80;;;;;49.21;8.97;101890.44;5056532;28;45407;-67
2022/07/15 09:56:10;;;;;;;;;3.60;1.80;;;;;49.23;8.96;101892.91;5056392;28;45443;-66
2022/07/15 09:58:40;;;;;;;;;0.20;0.00;;;;;49.48;8.46;101881.91;5055941;28;45554;-66
2022/07/15 10:01:10;;;;;;;;;1.20;0.80;;;;;49.63;8.68;101883.66;5056127;28;45505;-66
2022/07/15 10:03:37;;;;;;;;;1.00;0.60;;;;;49.66;8.78;101882.91;5038845;28;45423;-67
2022/07/15 10:06:03;;;;;;;;;1.60;1.00;;;;;49.33;8.41;101874.44;5039662;28;45297;-69
2022/07/15 10:08:31;;;;;;;;;1.00;0.00;;;;;48.76;8.49;101891.44;5075728;27;46288;-67
2022/07/15 10:10:57;;;;;;;;;1.60;0.20;;;;;48.92;8.52;101879.94;5098852;27;45442;-67
2022/07/15 10:13:25;;;;;;;;;0.60;0.60;;;;;48.90;9.11;101883.16;5099064;27;45468;-65
2022/07/15 10:16:27;;;;;;;;;1.00;1.00;;;;;49.02;8.47;101870.00;5099063;27;45484;-66
2022/07/15 10:18:56;;;;;;;;;0.40;0.40;;;;;49.09;8.71;101884.19;5096994;27;45940;-66
2022/07/15 10:22:01;;;;;;;;;0.40;0.40;;;;;48.56;9.18;101882.25;5098735;27;45339;-66
2022/07/15 10:24:35;;;;;;;;;4.80;1.80;;;;;48.44;8.34;101882.47;5097814;27;45609;-66
2022/07/15 10:27:31;;;;;;;;;2.80;0.80;;;;;48.35;9.01;101870.59;5099065;27;45896;-66
2022/07/15 10:29:57;;;;;;;;;0.40;0.40;;;;;48.21;8.59;101872.00;5098919;27;45806;-68
2022/07/15 10:32:22;;;;;;;;;0.20;0.00;;;;;48.04;8.85;101869.66;5098601;27;45187;-67
2022/07/15 10:34:48;;;;;;;;;1.00;1.00;;;;;47.79;8.82;101872.06;5098933;27;45291;-66
2022/07/15 10:37:14;;;;;;;;;0.80;0.80;;;;;47.87;7.91;101861.69;5098745;27;45293;-67
2022/07/15 10:39:51;;;;;;;;;1.40;0.40;;;;;48.04;8.80;101849.94;5098337;27;45407;-67
2022/07/15 10:42:18;;;;;;;;;0.00;0.00;;;;;47.59;8.90;101859.16;5098481;27;45309;-68
2022/07/15 10:44:59;;;;;;;;;0.80;0.80;;;;;46.61;9.04;101858.28;5098698;27;45445;-67
2022/07/15 10:47:25;;;;;;;;;1.80;1.00;;;;;46.19;9.19;101844.78;5098578;27;45360;-68
2022/07/15 10:49:51;;;;;;;;;2.40;2.40;;;;;46.30;9.44;101842.22;5098210;27;46134;-67
2022/07/15 10:52:24;;;;;;;;;0.00;0.00;;;;;45.93;9.52;101850.09;5098464;27;45374;-68
2022/07/15 10:55:01;;;;;;;;;1.20;0.80;;;;;44.93;9.42;101848.03;5098330;27;45303;-67
2022/07/15 10:57:44;;;;;;;;;1.00;1.00;;;;;43.81;10.18;101853.91;5098455;27;45384;-67
2022/07/15 11:00:15;;;;;;;;;0.80;0.80;;;;;43.16;10.58;101841.53;5097842;27;46180;-68
2022/07/15 11:03:04;;;;;;;;;1.00;1.00;;;;;41.23;11.06;101829.72;5096777;27;45317;-69
2022/07/15 11:05:31;;;;;;;;;3.00;1.00;;;;;39.15;12.21;101841.50;5098222;27;45344;-68
2022/07/15 11:07:56;;;;;;;;;1.40;0.80;;;;;37.89;13.20;101842.91;5098120;27;45356;-68
2022/07/15 11:10:24;;;;;;;;;0.00;0.00;;;;;36.74;13.88;101845.94;5097977;27;46174;-69
2022/07/15 11:12:49;;;;;;;;;1.00;1.00;;;;;35.60;14.67;101841.78;5098050;27;45291;-68
2022/07/15 11:15:17;;;;;;;;;2.50;1.00;;;;;34.51;15.73;101833.50;5098148;27;45481;-68
2022/07/15 11:17:46;;;;;;;;;0.20;0.20;;;;;33.92;16.70;101829.44;5098231;27;45339;-69
2022/07/15 11:20:38;;;;;;;;;0.60;0.60;;;;;33.34;16.39;101836.28;5113387;27;46645;-68
2022/07/15 11:23:06;;;;;;;;;2.20;2.20;;;;;32.69;16.79;101824.75;5095672;27;45577;-67
2022/07/15 11:25:40;;;;;;;;;0.40;0.40;;;;;32.12;17.21;101831.84;5097969;27;45450;-68
2022/07/15 11:28:13;;;;;;;;;0.00;0.00;;;;;31.79;18.10;101830.19;5098305;27;45417;-68
2022/07/15 11:30:42;;;;;;;;;1.60;1.60;;;;;31.44;18.35;101819.72;5114124;27;46372;-69
2022/07/15 11:33:10;;;;;;;;;1.20;0.20;;;;;31.23;18.90;101824.16;5097946;27;45369;-69
2022/07/15 11:35:44;;;;;;;;;2.40;2.00;;;;;31.11;18.98;101817.97;5097777;27;45364;-68